Fiskdale, MA (01518)

2:54 PM EDT on September 16, 2014 (GMT -0400)
Sturbridge | Change Station
CLOSE
Current Station
Personal Weather Station
Location: Fiskdale, MA
Elevation: 722 ft
Nearby Weather Stations

Elev 722 ft 42.13 °N, 72.10 °W | Updated 4 minutes ago

Overcast
Overcast
62.4 °F
Feels Like 62.4 °F
N
0.0
Wind Variable Wind from North
Gusts 3.0 mph

Today
High -- | Low -- °F
--% Chance of Precip.
Yesterday
High -- | Low -- °F
Precip. -- in
6:29 AM 6:56 PM
Last Quarter, 43% visible
Pressure 29.98 in
Visibility 10.0 miles
Clouds Scattered Clouds 2000 ft
Overcast 4900 ft
Dew Point 52 °F
Humidity 70%
Rainfall 0.01 in
Snow Depth Not available.
UV 2 out of 12
Pollen 2.30 out of 12
PM2.5 Good
Flu Activity Not available.
SPECI KORH 161820Z 26009KT 10SM SCT020 OVC049 16/11 A2998 RMK AO2 T01560106

More Conditions Fewer Conditions

Pressure 29.98 in
Visibility 10.0 miles
Clouds Scattered Clouds 2000 ft
Overcast 4900 ft
Dew Point 52 °F
Humidity 70%
Rainfall 0.01 in
Snow Depth Not available.
UV 2 out of 12
Pollen 2.30 out of 12
PM2.5 Good
Flu Activity Not available.
SPECI KORH 161820Z 26009KT 10SM SCT020 OVC049 16/11 A2998 RMK AO2 T01560106

More Conditions Fewer Conditions

10-Day Weather Forecast

Almanac

Astronomy

Sep. 16, 2014 Rise Set
Actual Time 6:29 AM EDT 6:56 PM EDT
Civil Twilight 6:01 AM EDT 7:24 PM EDT
Nautical Twilight 5:28 AM EDT 7:57 PM EDT
Astronomical Twilight 4:54 AM EDT 8:31 PM EDT
Moon No Moon Rise 2:22 PM EDT
Length of Visible Light 13h 22m
Length of Day
12h 26m
Tomorrow will be 2m 48s shorter.
Last Quarter, 43% of the Moon is Illuminated
Today
Last Quarter
Sep 24
New
Oct 1
First Quarter
Oct 8
Full
Oct 15
Last Quarter

Today's Extremes

State Highs State Lows

Community

WunderPhotos

Upload Photos

1,753,856 photos uploaded!

WunderBlogs® & News

Nearby

Air Quality

  Air Quality AQ Index Pollutant
Yesterday Good
OZONE
Yesterday Good
PM2.5
Current Good
PM2.5
Tuesday Good
PM2.5
Tuesday Good
OZONE

Snow Depth

Station Depth Elevation
No new snow has been reported.

Earthquake Activity

City Distance Mag. Time & Date
No recent earthquake activity has been reported nearby.
Minimum magnitude displayed is 2.5.

Coastal Water Temperatures

Place Temperature
No Stations Reporting

Nearby Weather Stations